sensor_id;sensor_type;location;lat;lon;timestamp;temperature;humidity
8220;DHT22;4151;51.110;7.020;2023-06-04T00:01:04;15.10;91.10
8220;DHT22;4151;51.110;7.020;2023-06-04T00:03:30;15.00;91.50
8220;DHT22;4151;51.110;7.020;2023-06-04T00:05:56;15.00;91.60
8220;DHT22;4151;51.110;7.020;2023-06-04T00:08:21;14.90;92.00
8220;DHT22;4151;51.110;7.020;2023-06-04T00:10:47;14.80;92.50
8220;DHT22;4151;51.110;7.020;2023-06-04T00:13:12;14.80;92.50
8220;DHT22;4151;51.110;7.020;2023-06-04T00:15:38;14.80;92.70
8220;DHT22;4151;51.110;7.020;2023-06-04T00:18:04;14.80;92.50
8220;DHT22;4151;51.110;7.020;2023-06-04T00:20:29;14.80;92.80
8220;DHT22;4151;51.110;7.020;2023-06-04T00:22:55;14.90;92.80
8220;DHT22;4151;51.110;7.020;2023-06-04T00:25:20;14.90;93.00
8220;DHT22;4151;51.110;7.020;2023-06-04T00:27:46;14.90;93.30
8220;DHT22;4151;51.110;7.020;2023-06-04T00:30:12;14.90;92.90
8220;DHT22;4151;51.110;7.020;2023-06-04T00:32:37;14.80;93.40
8220;DHT22;4151;51.110;7.020;2023-06-04T00:35:03;14.70;93.70
8220;DHT22;4151;51.110;7.020;2023-06-04T00:37:29;14.70;93.70
8220;DHT22;4151;51.110;7.020;2023-06-04T00:39:55;14.70;94.40
8220;DHT22;4151;51.110;7.020;2023-06-04T00:42:20;14.50;94.30
8220;DHT22;4151;51.110;7.020;2023-06-04T00:44:46;14.50;95.00
8220;DHT22;4151;51.110;7.020;2023-06-04T00:47:13;14.50;94.80
8220;DHT22;4151;51.110;7.020;2023-06-04T00:49:39;14.50;95.20
8220;DHT22;4151;51.110;7.020;2023-06-04T00:52:07;14.40;95.40
8220;DHT22;4151;51.110;7.020;2023-06-04T00:54:34;14.40;95.60
8220;DHT22;4151;51.110;7.020;2023-06-04T00:57:01;14.40;96.00
8220;DHT22;4151;51.110;7.020;2023-06-04T00:59:29;14.30;96.20
8220;DHT22;4151;51.110;7.020;2023-06-04T01:02:09;14.30;96.30
8220;DHT22;4151;51.110;7.020;2023-06-04T01:04:50;14.20;96.80
8220;DHT22;4151;51.110;7.020;2023-06-04T01:07:18;14.10;97.50
8220;DHT22;4151;51.110;7.020;2023-06-04T01:09:45;14.10;97.90
8220;DHT22;4151;51.110;7.020;2023-06-04T01:12:11;14.00;97.70
8220;DHT22;4151;51.110;7.020;2023-06-04T01:14:37;14.00;98.10
8220;DHT22;4151;51.110;7.020;2023-06-04T01:17:07;13.90;98.50
8220;DHT22;4151;51.110;7.020;2023-06-04T01:22:30;13.80;99.40
8220;DHT22;4151;51.110;7.020;2023-06-04T01:25:04;13.70;99.90
8220;DHT22;4151;51.110;7.020;2023-06-04T01:27:30;13.70;99.90
8220;DHT22;4151;51.110;7.020;2023-06-04T01:29:58;13.60;99.90
8220;DHT22;4151;51.110;7.020;2023-06-04T01:32:25;13.60;99.90
8220;DHT22;4151;51.110;7.020;2023-06-04T01:34:50;13.50;99.90
8220;DHT22;4151;51.110;7.020;2023-06-04T01:37:16;13.50;99.90
8220;DHT22;4151;51.110;7.020;2023-06-04T01:39:42;13.40;99.90
8220;DHT22;4151;51.110;7.020;2023-06-04T01:42:08;13.40;99.90
8220;DHT22;4151;51.110;7.020;2023-06-04T01:44:34;13.30;99.90
8220;DHT22;4151;51.110;7.020;2023-06-04T01:47:00;13.30;99.90
8220;DHT22;4151;51.110;7.020;2023-06-04T01:49:25;13.20;99.90
8220;DHT22;4151;51.110;7.020;2023-06-04T01:51:51;13.10;99.90
8220;DHT22;4151;51.110;7.020;2023-06-04T01:54:16;13.00;99.90
8220;DHT22;4151;51.110;7.020;2023-06-04T01:56:43;12.90;99.90
8220;DHT22;4151;51.110;7.020;2023-06-04T01:59:08;12.80;99.90
8220;DHT22;4151;51.110;7.020;2023-06-04T02:01:40;12.80;99.90
8220;DHT22;4151;51.110;7.020;2023-06-04T02:04:05;12.90;99.90
8220;DHT22;4151;51.110;7.020;2023-06-04T02:06:31;12.80;99.90
8220;DHT22;4151;51.110;7.020;2023-06-04T02:08:56;12.90;99.90
8220;DHT22;4151;51.110;7.020;2023-06-04T02:11:22;12.90;99.90
8220;DHT22;4151;51.110;7.020;2023-06-04T02:13:47;12.80;99.90
8220;DHT22;4151;51.110;7.020;2023-06-04T02:16:13;12.90;99.90
8220;DHT22;4151;51.110;7.020;2023-06-04T02:18:39;12.80;99.90
8220;DHT22;4151;51.110;7.020;2023-06-04T02:21:05;12.80;99.90
8220;DHT22;4151;51.110;7.020;2023-06-04T02:23:30;12.90;99.90
8220;DHT22;4151;51.110;7.020;2023-06-04T02:25:56;12.90;99.90
8220;DHT22;4151;51.110;7.020;2023-06-04T02:28:22;13.00;99.90
8220;DHT22;4151;51.110;7.020;2023-06-04T02:30:47;13.10;99.90
8220;DHT22;4151;51.110;7.020;2023-06-04T02:33:13;13.00;99.90
8220;DHT22;4151;51.110;7.020;2023-06-04T02:35:39;13.00;99.90
8220;DHT22;4151;51.110;7.020;2023-06-04T02:38:05;13.00;99.90
8220;DHT22;4151;51.110;7.020;2023-06-04T02:40:30;13.00;99.90
8220;DHT22;4151;51.110;7.020;2023-06-04T02:42:56;13.00;99.90
8220;DHT22;4151;51.110;7.020;2023-06-04T02:45:22;13.00;99.90
8220;DHT22;4151;51.110;7.020;2023-06-04T02:47:48;12.80;99.90
8220;DHT22;4151;51.110;7.020;2023-06-04T02:50:14;12.90;99.90
8220;DHT22;4151;51.110;7.020;2023-06-04T02:52:43;12.80;99.90
8220;DHT22;4151;51.110;7.020;2023-06-04T02:55:09;12.70;99.90
8220;DHT22;4151;51.110;7.020;2023-06-04T02:57:38;12.70;99.90
8220;DHT22;4151;51.110;7.020;2023-06-04T03:00:04;12.60;99.90
8220;DHT22;4151;51.110;7.020;2023-06-04T03:02:41;12.60;99.90
8220;DHT22;4151;51.110;7.020;2023-06-04T03:05:09;12.60;99.90
8220;DHT22;4151;51.110;7.020;2023-06-04T03:07:36;12.50;99.90
8220;DHT22;4151;51.110;7.020;2023-06-04T03:10:02;12.50;99.90
8220;DHT22;4151;51.110;7.020;2023-06-04T03:12:28;12.50;99.90
8220;DHT22;4151;51.110;7.020;2023-06-04T03:14:53;12.60;99.90
8220;DHT22;4151;51.110;7.020;2023-06-04T03:17:19;12.50;99.90
8220;DHT22;4151;51.110;7.020;2023-06-04T03:19:45;12.50;99.90
8220;DHT22;4151;51.110;7.020;2023-06-04T03:22:10;12.60;99.90
8220;DHT22;4151;51.110;7.020;2023-06-04T03:24:39;12.60;99.90
8220;DHT22;4151;51.110;7.020;2023-06-04T03:27:05;12.60;99.90
8220;DHT22;4151;51.110;7.020;2023-06-04T03:29:34;12.60;99.90
8220;DHT22;4151;51.110;7.020;2023-06-04T03:32:00;12.70;99.90
8220;DHT22;4151;51.110;7.020;2023-06-04T03:34:27;12.70;99.90
8220;DHT22;4151;51.110;7.020;2023-06-04T03:36:53;12.70;99.90
8220;DHT22;4151;51.110;7.020;2023-06-04T03:39:19;12.80;99.90
8220;DHT22;4151;51.110;7.020;2023-06-04T03:41:45;12.80;99.90
8220;DHT22;4151;51.110;7.020;2023-06-04T03:44:13;12.80;99.90
8220;DHT22;4151;51.110;7.020;2023-06-04T03:46:39;12.70;99.90
8220;DHT22;4151;51.110;7.020;2023-06-04T03:49:05;12.70;99.90
8220;DHT22;4151;51.110;7.020;2023-06-04T03:51:30;12.70;99.90
8220;DHT22;4151;51.110;7.020;2023-06-04T03:53:58;12.90;99.90
8220;DHT22;4151;51.110;7.020;2023-06-04T03:56:23;13.00;99.90
8220;DHT22;4151;51.110;7.020;2023-06-04T03:58:49;13.00;99.90
8220;DHT22;4151;51.110;7.020;2023-06-04T04:01:15;13.00;99.90
8220;DHT22;4151;51.110;7.020;2023-06-04T04:03:40;13.10;99.90
8220;DHT22;4151;51.110;7.020;2023-06-04T04:06:09;13.10;99.90
8220;DHT22;4151;51.110;7.020;2023-06-04T04:08:35;13.10;99.90
8220;DHT22;4151;51.110;7.020;2023-06-04T04:11:02;13.10;99.90
8220;DHT22;4151;51.110;7.020;2023-06-04T04:13:28;13.10;99.90
8220;DHT22;4151;51.110;7.020;2023-06-04T04:15:53;13.00;99.90
8220;DHT22;4151;51.110;7.020;2023-06-04T04:18:20;13.10;99.90
8220;DHT22;4151;51.110;7.020;2023-06-04T04:20:46;13.10;99.90
8220;DHT22;4151;51.110;7.020;2023-06-04T04:23:12;13.00;99.90
8220;DHT22;4151;51.110;7.020;2023-06-04T04:25:38;13.00;99.90
8220;DHT22;4151;51.110;7.020;2023-06-04T04:28:04;13.00;99.90
8220;DHT22;4151;51.110;7.020;2023-06-04T04:30:33;13.00;99.90
8220;DHT22;4151;51.110;7.020;2023-06-04T04:33:00;13.10;99.90
8220;DHT22;4151;51.110;7.020;2023-06-04T04:35:26;13.10;99.90
8220;DHT22;4151;51.110;7.020;2023-06-04T04:37:51;13.10;99.90
8220;DHT22;4151;51.110;7.020;2023-06-04T04:40:17;13.20;99.90
8220;DHT22;4151;51.110;7.020;2023-06-04T04:42:43;13.30;99.90
8220;DHT22;4151;51.110;7.020;2023-06-04T04:45:09;13.40;99.90
8220;DHT22;4151;51.110;7.020;2023-06-04T04:47:35;13.40;99.90
8220;DHT22;4151;51.110;7.020;2023-06-04T04:50:00;13.40;99.90
8220;DHT22;4151;51.110;7.020;2023-06-04T04:52:26;13.60;99.90
8220;DHT22;4151;51.110;7.020;2023-06-04T04:54:51;13.60;99.90
8220;DHT22;4151;51.110;7.020;2023-06-04T04:57:21;13.70;99.90
8220;DHT22;4151;51.110;7.020;2023-06-04T04:59:48;13.70;99.90
8220;DHT22;4151;51.110;7.020;2023-06-04T05:02:14;13.70;99.90
8220;DHT22;4151;51.110;7.020;2023-06-04T05:04:39;13.80;99.90
8220;DHT22;4151;51.110;7.020;2023-06-04T05:07:05;13.80;99.90
8220;DHT22;4151;51.110;7.020;2023-06-04T05:09:31;13.90;99.90
8220;DHT22;4151;51.110;7.020;2023-06-04T05:11:56;14.00;99.90
8220;DHT22;4151;51.110;7.020;2023-06-04T05:14:22;14.00;99.90
8220;DHT22;4151;51.110;7.020;2023-06-04T05:16:48;14.10;99.90
8220;DHT22;4151;51.110;7.020;2023-06-04T05:19:16;14.20;99.90
8220;DHT22;4151;51.110;7.020;2023-06-04T05:21:42;14.30;99.90
8220;DHT22;4151;51.110;7.020;2023-06-04T05:24:09;14.40;99.90
8220;DHT22;4151;51.110;7.020;2023-06-04T05:26:36;14.50;99.90
8220;DHT22;4151;51.110;7.020;2023-06-04T05:29:02;14.60;99.90
8220;DHT22;4151;51.110;7.020;2023-06-04T05:31:29;14.60;99.90
8220;DHT22;4151;51.110;7.020;2023-06-04T05:33:59;14.70;99.90
8220;DHT22;4151;51.110;7.020;2023-06-04T05:36:27;14.80;99.90
8220;DHT22;4151;51.110;7.020;2023-06-04T05:38:53;14.90;99.90
8220;DHT22;4151;51.110;7.020;2023-06-04T05:41:23;15.00;99.90
8220;DHT22;4151;51.110;7.020;2023-06-04T05:43:50;15.10;99.90
8220;DHT22;4151;51.110;7.020;2023-06-04T05:46:15;15.20;99.90
8220;DHT22;4151;51.110;7.020;2023-06-04T05:48:41;15.30;99.90
8220;DHT22;4151;51.110;7.020;2023-06-04T05:51:07;15.40;99.90
8220;DHT22;4151;51.110;7.020;2023-06-04T05:53:33;15.60;99.90
8220;DHT22;4151;51.110;7.020;2023-06-04T05:55:58;15.70;99.90
8220;DHT22;4151;51.110;7.020;2023-06-04T05:58:24;15.70;99.90
8220;DHT22;4151;51.110;7.020;2023-06-04T06:00:51;15.80;99.90
8220;DHT22;4151;51.110;7.020;2023-06-04T06:03:16;15.80;99.90
8220;DHT22;4151;51.110;7.020;2023-06-04T06:05:42;15.90;99.90
8220;DHT22;4151;51.110;7.020;2023-06-04T06:08:08;16.00;99.90
8220;DHT22;4151;51.110;7.020;2023-06-04T06:10:34;16.00;99.90
8220;DHT22;4151;51.110;7.020;2023-06-04T06:13:00;16.10;99.90
8220;DHT22;4151;51.110;7.020;2023-06-04T06:15:26;16.20;99.90
8220;DHT22;4151;51.110;7.020;2023-06-04T06:17:52;16.20;99.90
8220;DHT22;4151;51.110;7.020;2023-06-04T06:20:18;16.30;99.90
8220;DHT22;4151;51.110;7.020;2023-06-04T06:22:44;16.40;99.90
8220;DHT22;4151;51.110;7.020;2023-06-04T06:25:10;16.50;99.90
8220;DHT22;4151;51.110;7.020;2023-06-04T06:27:38;16.50;99.90
8220;DHT22;4151;51.110;7.020;2023-06-04T06:30:06;16.60;99.90
8220;DHT22;4151;51.110;7.020;2023-06-04T06:32:32;16.70;99.90
8220;DHT22;4151;51.110;7.020;2023-06-04T06:34:57;16.80;99.90
8220;DHT22;4151;51.110;7.020;2023-06-04T06:37:23;16.90;99.90
8220;DHT22;4151;51.110;7.020;2023-06-04T06:39:48;17.00;99.90
8220;DHT22;4151;51.110;7.020;2023-06-04T06:42:14;17.10;99.90
8220;DHT22;4151;51.110;7.020;2023-06-04T06:44:43;17.20;99.90
8220;DHT22;4151;51.110;7.020;2023-06-04T06:47:09;17.30;99.90
8220;DHT22;4151;51.110;7.020;2023-06-04T06:49:35;17.40;99.90
8220;DHT22;4151;51.110;7.020;2023-06-04T06:52:01;17.50;99.90
8220;DHT22;4151;51.110;7.020;2023-06-04T06:54:27;17.60;99.90
8220;DHT22;4151;51.110;7.020;2023-06-04T06:56:52;17.70;99.90
8220;DHT22;4151;51.110;7.020;2023-06-04T06:59:18;17.80;99.90
8220;DHT22;4151;51.110;7.020;2023-06-04T07:01:44;17.90;99.90
8220;DHT22;4151;51.110;7.020;2023-06-04T07:04:10;18.10;99.90
8220;DHT22;4151;51.110;7.020;2023-06-04T07:06:35;18.20;99.90
8220;DHT22;4151;51.110;7.020;2023-06-04T07:09:02;18.20;99.90
8220;DHT22;4151;51.110;7.020;2023-06-04T07:11:28;18.40;99.90
8220;DHT22;4151;51.110;7.020;2023-06-04T07:13:54;18.40;99.90
8220;DHT22;4151;51.110;7.020;2023-06-04T07:16:19;18.60;99.90
8220;DHT22;4151;51.110;7.020;2023-06-04T07:18:47;18.70;99.90
8220;DHT22;4151;51.110;7.020;2023-06-04T07:21:14;18.90;99.90
8220;DHT22;4151;51.110;7.020;2023-06-04T07:23:40;19.00;99.90
8220;DHT22;4151;51.110;7.020;2023-06-04T07:26:05;19.10;99.90
8220;DHT22;4151;51.110;7.020;2023-06-04T07:28:32;19.10;99.90
8220;DHT22;4151;51.110;7.020;2023-06-04T07:30:57;19.20;99.90
8220;DHT22;4151;51.110;7.020;2023-06-04T07:33:24;19.20;99.90
8220;DHT22;4151;51.110;7.020;2023-06-04T07:35:50;19.30;99.90
8220;DHT22;4151;51.110;7.020;2023-06-04T07:38:15;19.50;99.90
8220;DHT22;4151;51.110;7.020;2023-06-04T07:40:41;19.50;99.90
8220;DHT22;4151;51.110;7.020;2023-06-04T07:43:07;19.50;99.90
8220;DHT22;4151;51.110;7.020;2023-06-04T07:45:33;19.60;99.90
8220;DHT22;4151;51.110;7.020;2023-06-04T07:47:58;19.60;99.90
8220;DHT22;4151;51.110;7.020;2023-06-04T07:50:24;19.70;99.90
8220;DHT22;4151;51.110;7.020;2023-06-04T07:52:50;19.70;99.90
8220;DHT22;4151;51.110;7.020;2023-06-04T07:55:16;19.80;99.90
8220;DHT22;4151;51.110;7.020;2023-06-04T07:57:42;19.90;99.90
8220;DHT22;4151;51.110;7.020;2023-06-04T08:00:08;20.00;99.90
8220;DHT22;4151;51.110;7.020;2023-06-04T08:02:34;20.00;99.90
8220;DHT22;4151;51.110;7.020;2023-06-04T08:05:00;20.10;99.90
8220;DHT22;4151;51.110;7.020;2023-06-04T08:07:27;20.20;99.90
8220;DHT22;4151;51.110;7.020;2023-06-04T08:09:53;20.30;99.90
8220;DHT22;4151;51.110;7.020;2023-06-04T08:12:19;20.40;99.60
8220;DHT22;4151;51.110;7.020;2023-06-04T08:14:45;20.40;99.80
8220;DHT22;4151;51.110;7.020;2023-06-04T08:17:10;20.50;98.20
8220;DHT22;4151;51.110;7.020;2023-06-04T08:19:36;20.50;98.70
8220;DHT22;4151;51.110;7.020;2023-06-04T08:22:02;20.60;99.10
8220;DHT22;4151;51.110;7.020;2023-06-04T08:24:27;20.70;98.60
8220;DHT22;4151;51.110;7.020;2023-06-04T08:26:53;20.90;97.30
8220;DHT22;4151;51.110;7.020;2023-06-04T08:29:19;20.90;96.50
8220;DHT22;4151;51.110;7.020;2023-06-04T08:31:44;20.90;97.80
8220;DHT22;4151;51.110;7.020;2023-06-04T08:34:10;21.00;97.10
8220;DHT22;4151;51.110;7.020;2023-06-04T08:36:35;21.10;96.70
8220;DHT22;4151;51.110;7.020;2023-06-04T08:39:01;21.20;96.10
8220;DHT22;4151;51.110;7.020;2023-06-04T08:41:33;21.30;95.80
8220;DHT22;4151;51.110;7.020;2023-06-04T08:43:59;21.40;94.90
8220;DHT22;4151;51.110;7.020;2023-06-04T08:46:28;21.50;95.10
8220;DHT22;4151;51.110;7.020;2023-06-04T08:48:56;21.60;94.30
8220;DHT22;4151;51.110;7.020;2023-06-04T08:51:24;21.80;93.40
8220;DHT22;4151;51.110;7.020;2023-06-04T08:53:49;21.80;92.60
8220;DHT22;4151;51.110;7.020;2023-06-04T08:56:19;21.90;92.30
8220;DHT22;4151;51.110;7.020;2023-06-04T08:58:47;22.00;92.30
8220;DHT22;4151;51.110;7.020;2023-06-04T09:01:13;22.20;92.20
8220;DHT22;4151;51.110;7.020;2023-06-04T09:03:39;22.50;92.80
8220;DHT22;4151;51.110;7.020;2023-06-04T09:06:06;22.70;91.70
8220;DHT22;4151;51.110;7.020;2023-06-04T09:08:35;23.00;90.80
8220;DHT22;4151;51.110;7.020;2023-06-04T09:11:08;23.30;90.20
8220;DHT22;4151;51.110;7.020;2023-06-04T09:13:35;23.50;88.90
8220;DHT22;4151;51.110;7.020;2023-06-04T09:16:02;23.70;86.30
8220;DHT22;4151;51.110;7.020;2023-06-04T09:18:28;23.90;85.80
8220;DHT22;4151;51.110;7.020;2023-06-04T09:21:01;24.30;82.10
8220;DHT22;4151;51.110;7.020;2023-06-04T09:23:27;24.80;80.90
8220;DHT22;4151;51.110;7.020;2023-06-04T09:25:53;24.70;82.10
8220;DHT22;4151;51.110;7.020;2023-06-04T09:28:20;24.90;81.90
8220;DHT22;4151;51.110;7.020;2023-06-04T09:30:54;25.00;80.70
8220;DHT22;4151;51.110;7.020;2023-06-04T09:33:20;25.40;78.90
8220;DHT22;4151;51.110;7.020;2023-06-04T09:35:58;25.70;79.20
8220;DHT22;4151;51.110;7.020;2023-06-04T09:38:33;25.50;77.70
8220;DHT22;4151;51.110;7.020;2023-06-04T09:40:59;25.90;77.60
8220;DHT22;4151;51.110;7.020;2023-06-04T09:43:26;26.10;77.30
8220;DHT22;4151;51.110;7.020;2023-06-04T09:45:51;25.80;71.50
8220;DHT22;4151;51.110;7.020;2023-06-04T09:48:21;25.80;71.90
8220;DHT22;4151;51.110;7.020;2023-06-04T09:50:47;26.00;74.70
8220;DHT22;4151;51.110;7.020;2023-06-04T09:53:19;25.70;74.30
8220;DHT22;4151;51.110;7.020;2023-06-04T09:55:58;25.80;74.80
8220;DHT22;4151;51.110;7.020;2023-06-04T09:58:26;26.10;73.80
8220;DHT22;4151;51.110;7.020;2023-06-04T10:00:54;26.30;70.50
8220;DHT22;4151;51.110;7.020;2023-06-04T10:03:21;26.10;71.00
8220;DHT22;4151;51.110;7.020;2023-06-04T10:05:52;26.10;71.70
8220;DHT22;4151;51.110;7.020;2023-06-04T10:08:18;26.50;72.10
8220;DHT22;4151;51.110;7.020;2023-06-04T10:10:47;26.60;70.60
8220;DHT22;4151;51.110;7.020;2023-06-04T10:13:18;26.60;71.90
8220;DHT22;4151;51.110;7.020;2023-06-04T10:15:45;27.00;67.60
8220;DHT22;4151;51.110;7.020;2023-06-04T10:18:13;26.60;66.60
8220;DHT22;4151;51.110;7.020;2023-06-04T10:20:40;26.10;71.40
8220;DHT22;4151;51.110;7.020;2023-06-04T10:23:06;26.20;67.40
8220;DHT22;4151;51.110;7.020;2023-06-04T10:25:34;26.80;68.90
8220;DHT22;4151;51.110;7.020;2023-06-04T10:28:01;27.00;68.50
8220;DHT22;4151;51.110;7.020;2023-06-04T10:30:27;27.20;69.40
8220;DHT22;4151;51.110;7.020;2023-06-04T10:32:53;27.20;69.30
8220;DHT22;4151;51.110;7.020;2023-06-04T10:35:29;27.60;65.10
8220;DHT22;4151;51.110;7.020;2023-06-04T10:38:10;28.30;65.90
8220;DHT22;4151;51.110;7.020;2023-06-04T10:40:36;28.10;63.50
8220;DHT22;4151;51.110;7.020;2023-06-04T10:43:12;28.20;66.30
8220;DHT22;4151;51.110;7.020;2023-06-04T10:45:38;28.10;62.60
8220;DHT22;4151;51.110;7.020;2023-06-04T10:48:06;28.30;63.00
8220;DHT22;4151;51.110;7.020;2023-06-04T10:50:34;28.70;62.90
8220;DHT22;4151;51.110;7.020;2023-06-04T10:53:00;29.10;60.90
8220;DHT22;4151;51.110;7.020;2023-06-04T10:55:32;29.40;61.00
8220;DHT22;4151;51.110;7.020;2023-06-04T10:58:00;29.70;60.00
8220;DHT22;4151;51.110;7.020;2023-06-04T11:03:02;29.80;60.40
8220;DHT22;4151;51.110;7.020;2023-06-04T11:05:53;30.00;59.20
8220;DHT22;4151;51.110;7.020;2023-06-04T11:08:28;30.20;59.80
8220;DHT22;4151;51.110;7.020;2023-06-04T11:10:53;30.10;62.00
8220;DHT22;4151;51.110;7.020;2023-06-04T11:13:23;30.50;60.20
8220;DHT22;4151;51.110;7.020;2023-06-04T11:15:50;30.30;59.70
8220;DHT22;4151;51.110;7.020;2023-06-04T11:18:20;30.80;60.00
8220;DHT22;4151;51.110;7.020;2023-06-04T11:20:50;30.60;59.30
8220;DHT22;4151;51.110;7.020;2023-06-04T11:23:23;30.30;61.00
8220;DHT22;4151;51.110;7.020;2023-06-04T11:25:52;30.90;60.00
8220;DHT22;4151;51.110;7.020;2023-06-04T11:28:18;30.70;61.60
8220;DHT22;4151;51.110;7.020;2023-06-04T11:30:44;30.70;61.90
8220;DHT22;4151;51.110;7.020;2023-06-04T11:33:10;30.80;61.80
8220;DHT22;4151;51.110;7.020;2023-06-04T11:35:42;31.10;62.00
8220;DHT22;4151;51.110;7.020;2023-06-04T11:38:10;31.10;61.00
8220;DHT22;4151;51.110;7.020;2023-06-04T11:40:36;31.30;60.00
8220;DHT22;4151;51.110;7.020;2023-06-04T11:43:01;32.00;58.40
8220;DHT22;4151;51.110;7.020;2023-06-04T11:45:28;31.80;58.00
8220;DHT22;4151;51.110;7.020;2023-06-04T11:47:56;31.70;59.60
8220;DHT22;4151;51.110;7.020;2023-06-04T11:50:26;32.30;59.30
8220;DHT22;4151;51.110;7.020;2023-06-04T11:52:53;32.00;59.40
8220;DHT22;4151;51.110;7.020;2023-06-04T11:55:19;31.50;59.60
8220;DHT22;4151;51.110;7.020;2023-06-04T11:57:49;31.40;58.30
8220;DHT22;4151;51.110;7.020;2023-06-04T12:00:15;32.00;58.30
8220;DHT22;4151;51.110;7.020;2023-06-04T12:02:53;32.40;57.10
8220;DHT22;4151;51.110;7.020;2023-06-04T12:05:20;32.20;59.10
8220;DHT22;4151;51.110;7.020;2023-06-04T12:07:47;32.40;59.10
8220;DHT22;4151;51.110;7.020;2023-06-04T12:10:21;32.40;57.90
8220;DHT22;4151;51.110;7.020;2023-06-04T12:12:53;32.20;58.10
8220;DHT22;4151;51.110;7.020;2023-06-04T12:15:22;32.40;57.80
8220;DHT22;4151;51.110;7.020;2023-06-04T12:17:52;32.60;58.00
8220;DHT22;4151;51.110;7.020;2023-06-04T12:20:19;32.40;58.40
8220;DHT22;4151;51.110;7.020;2023-06-04T12:22:55;32.30;57.30
8220;DHT22;4151;51.110;7.020;2023-06-04T12:25:25;33.00;58.10
8220;DHT22;4151;51.110;7.020;2023-06-04T12:27:51;32.90;57.90
8220;DHT22;4151;51.110;7.020;2023-06-04T12:30:17;33.10;57.40
8220;DHT22;4151;51.110;7.020;2023-06-04T12:32:42;33.70;56.90
8220;DHT22;4151;51.110;7.020;2023-06-04T12:35:09;33.80;57.50
8220;DHT22;4151;51.110;7.020;2023-06-04T12:37:35;34.50;55.60
8220;DHT22;4151;51.110;7.020;2023-06-04T12:40:00;34.30;56.60
8220;DHT22;4151;51.110;7.020;2023-06-04T12:42:26;34.20;56.10
8220;DHT22;4151;51.110;7.020;2023-06-04T12:44:53;34.20;54.80
8220;DHT22;4151;51.110;7.020;2023-06-04T12:47:19;34.40;55.50
8220;DHT22;4151;51.110;7.020;2023-06-04T12:49:46;34.50;55.50
8220;DHT22;4151;51.110;7.020;2023-06-04T12:52:11;34.60;55.80
8220;DHT22;4151;51.110;7.020;2023-06-04T12:54:39;35.00;54.10
8220;DHT22;4151;51.110;7.020;2023-06-04T12:57:05;34.30;54.20
8220;DHT22;4151;51.110;7.020;2023-06-04T12:59:31;33.90;54.50
8220;DHT22;4151;51.110;7.020;2023-06-04T13:01:56;34.20;55.50
8220;DHT22;4151;51.110;7.020;2023-06-04T13:04:22;34.20;55.30
8220;DHT22;4151;51.110;7.020;2023-06-04T13:06:49;34.80;54.60
8220;DHT22;4151;51.110;7.020;2023-06-04T13:09:15;35.60;53.70
8220;DHT22;4151;51.110;7.020;2023-06-04T13:11:44;35.70;54.50
8220;DHT22;4151;51.110;7.020;2023-06-04T13:14:10;35.40;54.30
8220;DHT22;4151;51.110;7.020;2023-06-04T13:16:38;35.60;53.50
8220;DHT22;4151;51.110;7.020;2023-06-04T13:19:05;35.70;53.30
8220;DHT22;4151;51.110;7.020;2023-06-04T13:21:30;35.60;53.30
8220;DHT22;4151;51.110;7.020;2023-06-04T13:23:56;35.90;53.00
8220;DHT22;4151;51.110;7.020;2023-06-04T13:26:22;36.60;51.90
8220;DHT22;4151;51.110;7.020;2023-06-04T13:28:47;36.60;52.00
8220;DHT22;4151;51.110;7.020;2023-06-04T13:31:13;36.80;52.30
8220;DHT22;4151;51.110;7.020;2023-06-04T13:33:39;35.90;53.60
8220;DHT22;4151;51.110;7.020;2023-06-04T13:36:05;36.00;51.20
8220;DHT22;4151;51.110;7.020;2023-06-04T13:38:31;37.90;51.00
8220;DHT22;4151;51.110;7.020;2023-06-04T13:40:57;37.70;50.30
8220;DHT22;4151;51.110;7.020;2023-06-04T13:43:23;36.30;52.10
8220;DHT22;4151;51.110;7.020;2023-06-04T13:45:48;36.80;50.70
8220;DHT22;4151;51.110;7.020;2023-06-04T13:48:14;36.20;52.70
8220;DHT22;4151;51.110;7.020;2023-06-04T13:50:41;36.30;51.70
8220;DHT22;4151;51.110;7.020;2023-06-04T13:53:07;37.10;50.30
8220;DHT22;4151;51.110;7.020;2023-06-04T13:55:33;36.90;51.80
8220;DHT22;4151;51.110;7.020;2023-06-04T13:57:58;36.60;52.00
8220;DHT22;4151;51.110;7.020;2023-06-04T14:00:24;37.30;50.20
8220;DHT22;4151;51.110;7.020;2023-06-04T14:02:49;37.70;50.60
8220;DHT22;4151;51.110;7.020;2023-06-04T14:05:15;38.00;50.30
8220;DHT22;4151;51.110;7.020;2023-06-04T14:07:44;39.10;49.10
8220;DHT22;4151;51.110;7.020;2023-06-04T14:10:11;38.90;48.70
8220;DHT22;4151;51.110;7.020;2023-06-04T14:12:40;38.80;48.40
8220;DHT22;4151;51.110;7.020;2023-06-04T14:15:07;39.80;49.00
8220;DHT22;4151;51.110;7.020;2023-06-04T14:17:33;39.30;47.60
8220;DHT22;4151;51.110;7.020;2023-06-04T14:20:00;40.30;48.10
8220;DHT22;4151;51.110;7.020;2023-06-04T14:22:26;39.30;48.80
8220;DHT22;4151;51.110;7.020;2023-06-04T14:24:51;39.40;47.60
8220;DHT22;4151;51.110;7.020;2023-06-04T14:27:17;39.90;48.10
8220;DHT22;4151;51.110;7.020;2023-06-04T14:29:42;39.20;48.30
8220;DHT22;4151;51.110;7.020;2023-06-04T14:32:08;38.00;49.20
8220;DHT22;4151;51.110;7.020;2023-06-04T14:34:33;37.30;50.80
8220;DHT22;4151;51.110;7.020;2023-06-04T14:36:59;37.50;48.70
8220;DHT22;4151;51.110;7.020;2023-06-04T14:39:29;37.60;49.20
8220;DHT22;4151;51.110;7.020;2023-06-04T14:41:54;38.70;48.90
8220;DHT22;4151;51.110;7.020;2023-06-04T14:44:20;39.40;49.10
8220;DHT22;4151;51.110;7.020;2023-06-04T14:46:46;40.30;47.50
8220;DHT22;4151;51.110;7.020;2023-06-04T14:49:12;40.40;47.70
8220;DHT22;4151;51.110;7.020;2023-06-04T14:51:37;40.10;46.40
8220;DHT22;4151;51.110;7.020;2023-06-04T14:54:03;39.60;47.70
8220;DHT22;4151;51.110;7.020;2023-06-04T14:56:29;40.10;47.80
8220;DHT22;4151;51.110;7.020;2023-06-04T14:58:56;40.60;47.20
8220;DHT22;4151;51.110;7.020;2023-06-04T15:01:21;40.30;46.90
8220;DHT22;4151;51.110;7.020;2023-06-04T15:03:50;39.30;47.30
8220;DHT22;4151;51.110;7.020;2023-06-04T15:06:16;38.80;47.90
8220;DHT22;4151;51.110;7.020;2023-06-04T15:08:42;38.10;47.70
8220;DHT22;4151;51.110;7.020;2023-06-04T15:11:10;37.90;49.20
8220;DHT22;4151;51.110;7.020;2023-06-04T15:13:35;38.00;48.40
8220;DHT22;4151;51.110;7.020;2023-06-04T15:16:01;37.30;49.30
8220;DHT22;4151;51.110;7.020;2023-06-04T15:18:27;37.20;49.90
8220;DHT22;4151;51.110;7.020;2023-06-04T15:20:53;37.10;50.10
8220;DHT22;4151;51.110;7.020;2023-06-04T15:23:18;38.60;48.70
8220;DHT22;4151;51.110;7.020;2023-06-04T15:25:44;40.00;47.10
8220;DHT22;4151;51.110;7.020;2023-06-04T15:28:10;39.30;46.90
8220;DHT22;4151;51.110;7.020;2023-06-04T15:30:35;39.10;47.40
8220;DHT22;4151;51.110;7.020;2023-06-04T15:33:01;39.40;46.90
8220;DHT22;4151;51.110;7.020;2023-06-04T15:35:27;39.80;46.90
8220;DHT22;4151;51.110;7.020;2023-06-04T15:37:53;39.40;46.60
8220;DHT22;4151;51.110;7.020;2023-06-04T15:40:19;38.90;47.00
8220;DHT22;4151;51.110;7.020;2023-06-04T15:42:45;38.50;47.30
8220;DHT22;4151;51.110;7.020;2023-06-04T15:45:10;37.60;48.10
8220;DHT22;4151;51.110;7.020;2023-06-04T15:47:36;36.90;47.90
8220;DHT22;4151;51.110;7.020;2023-06-04T15:50:02;36.70;48.10
8220;DHT22;4151;51.110;7.020;2023-06-04T15:52:27;37.00;48.70
8220;DHT22;4151;51.110;7.020;2023-06-04T15:54:53;36.70;48.30
8220;DHT22;4151;51.110;7.020;2023-06-04T15:57:18;37.40;48.40
8220;DHT22;4151;51.110;7.020;2023-06-04T15:59:45;37.50;46.90
8220;DHT22;4151;51.110;7.020;2023-06-04T16:02:11;37.00;47.80
8220;DHT22;4151;51.110;7.020;2023-06-04T16:04:36;36.30;48.70